KHAO

Butler Co Regional-Hogan Field Airport

Hamilton, Ohio, USA
METAR KHAO 181553Z AUTO 23007KT 5SM BR OVC009 07/06 A3011 RMK AO2 SLP199 T00720061
Observed Flight Rules
Dec-18 @ 15:53 UTC (54 minutes ago) Instrument Flight Rules
Wind Visibility Clouds Conditions
230° at 7 knots 5 miles
  • Overcast at 900' AGL
  • Mist
Temperatures Readings
Current 7°C / 45°F
Dewpoint 6°C / 43°F
Humidity 93%
Altimeter 30.11" Hg
Pressure 1019.9 hPa
Elevation 188
METAR KHAO 181553Z AUTO 23007KT 5SM BR OVC009 07/06 A3011 RMK AO2 SLP199 T00720061
Observed Flight Rules
Dec-18 @ 15:53 UTC
(54 minutes ago)
IFR
Wind Visibility
230° at 7 knots 5 miles
Clouds
  • Overcast at 900' AGL
Conditions
  • Mist
Temperature Dewpoint
7°C / 45°F 6°C / 43°F
Humidity Altimeter Pressure
93% 30.11" Hg 1019.9 hPa